createdAt,value
2019-03-19T00:02:26.649Z,2.50
2019-03-19T00:04:54.250Z,2.50
2019-03-19T00:07:22.589Z,2.40
2019-03-19T00:09:50.189Z,2.40
2019-03-19T00:12:18.533Z,2.40
2019-03-19T00:14:46.143Z,2.40
2019-03-19T00:17:14.480Z,2.30
2019-03-19T00:19:42.056Z,2.40
2019-03-19T00:22:09.654Z,2.30
2019-03-19T00:24:37.224Z,2.30
2019-03-19T00:27:04.952Z,2.40
2019-03-19T00:29:32.541Z,2.40
2019-03-19T00:32:00.119Z,2.40
2019-03-19T00:34:28.417Z,2.40
2019-03-19T00:36:55.995Z,2.30
2019-03-19T00:39:23.560Z,2.30
2019-03-19T00:41:51.249Z,2.20
2019-03-19T00:44:19.585Z,2.30
2019-03-19T00:46:47.158Z,2.30
2019-03-19T00:49:14.779Z,2.30
2019-03-19T00:51:42.353Z,2.20
2019-03-19T00:54:10.441Z,2.20
2019-03-19T00:56:38.039Z,2.20
2019-03-19T00:59:05.613Z,2.10
2019-03-19T01:01:34.078Z,2.10
2019-03-19T01:04:01.659Z,2.10
2019-03-19T01:06:30.005Z,1.90
2019-03-19T01:08:58.166Z,1.90
2019-03-19T01:11:25.740Z,1.90
2019-03-19T01:13:53.317Z,1.90
2019-03-19T01:16:20.910Z,1.90
2019-03-19T01:18:48.491Z,1.80
2019-03-19T01:21:16.184Z,1.90
2019-03-19T01:23:43.751Z,1.90
2019-03-19T01:26:11.325Z,1.80
2019-03-19T01:28:39.471Z,1.80
2019-03-19T01:31:07.046Z,1.80
2019-03-19T01:33:34.771Z,1.70
2019-03-19T01:36:02.663Z,1.70
2019-03-19T01:41:25.669Z,1.70
2019-03-19T01:43:53.318Z,1.60
2019-03-19T01:46:20.998Z,1.60
2019-03-19T01:48:48.573Z,1.60
2019-03-19T01:51:16.917Z,1.60
2019-03-19T01:53:44.517Z,1.60
2019-03-19T01:56:12.857Z,1.70
2019-03-19T01:58:40.556Z,1.60
2019-03-19T02:01:08.130Z,1.60
2019-03-19T02:03:35.696Z,1.80
2019-03-19T02:06:03.303Z,1.80
2019-03-19T02:08:30.871Z,1.70
2019-03-19T02:10:58.509Z,1.60
2019-03-19T02:13:26.594Z,1.60
2019-03-19T02:15:54.171Z,1.50
2019-03-19T02:18:21.774Z,1.40
2019-03-19T02:20:49.350Z,1.40
2019-03-19T02:23:16.995Z,1.40
2019-03-19T02:25:45.338Z,1.70
2019-03-19T02:28:12.914Z,1.60
2019-03-19T02:30:40.519Z,1.60
2019-03-19T02:33:08.083Z,1.50
2019-03-19T02:35:35.775Z,1.40
2019-03-19T02:38:03.639Z,1.30
2019-03-19T02:40:31.218Z,1.20
2019-03-19T02:42:58.818Z,1.10
2019-03-19T02:45:27.192Z,1.30
2019-03-19T02:47:54.862Z,1.20
2019-03-19T02:50:23.204Z,1.30
2019-03-19T02:52:50.770Z,1.20
2019-03-19T02:55:18.372Z,1.20
2019-03-19T02:57:46.719Z,1.30
2019-03-19T03:00:17.289Z,1.30
2019-03-19T03:02:45.646Z,1.30
2019-03-19T03:05:14.006Z,1.20
2019-03-19T03:07:41.578Z,1.20
2019-03-19T03:10:09.196Z,1.20
2019-03-19T03:12:36.772Z,1.20
2019-03-19T03:15:04.351Z,1.10
2019-03-19T03:17:31.955Z,1.10
2019-03-19T03:19:59.538Z,1.20
2019-03-19T03:22:27.159Z,1.30
2019-03-19T03:24:55.515Z,1.20
2019-03-19T03:27:23.090Z,1.20
2019-03-19T03:29:50.693Z,1.20
2019-03-19T03:32:18.266Z,1.30
2019-03-19T03:34:45.973Z,1.20
2019-03-19T03:37:13.540Z,1.40
2019-03-19T03:39:41.883Z,1.50
2019-03-19T03:42:09.486Z,1.50
2019-03-19T03:44:37.830Z,1.50
2019-03-19T03:47:05.481Z,1.50
2019-03-19T03:49:33.070Z,1.50
2019-03-19T03:52:00.665Z,1.60
2019-03-19T03:54:28.249Z,1.60
2019-03-19T03:57:01.700Z,1.60
2019-03-19T03:59:23.443Z,1.60
2019-03-19T04:01:51.795Z,1.50
2019-03-19T04:04:19.381Z,1.40
2019-03-19T04:06:47.747Z,1.50
2019-03-19T04:09:15.379Z,1.50
2019-03-19T04:11:42.961Z,1.50
2019-03-19T04:14:10.547Z,1.40
2019-03-19T04:16:38.898Z,1.40
2019-03-19T04:19:06.507Z,1.40
2019-03-19T04:21:34.082Z,1.40
2019-03-19T04:24:01.746Z,1.50
2019-03-19T04:26:29.343Z,1.70
2019-03-19T04:28:56.950Z,1.60
2019-03-19T04:31:24.576Z,1.60
2019-03-19T04:33:52.157Z,1.60
2019-03-19T04:36:20.539Z,1.90
2019-03-19T04:38:48.881Z,1.80
2019-03-19T04:41:16.460Z,1.80
2019-03-19T04:43:44.949Z,1.80
2019-03-19T04:46:12.529Z,1.80
2019-03-19T04:48:40.879Z,1.60
2019-03-19T04:51:08.492Z,1.50
2019-03-19T04:53:36.073Z,1.50
2019-03-19T04:56:03.777Z,1.40
2019-03-19T04:58:31.362Z,1.30
2019-03-19T05:00:59.706Z,1.30
2019-03-19T05:03:27.315Z,1.20
2019-03-19T05:05:54.889Z,1.20
2019-03-19T05:08:22.562Z,1.20
2019-03-19T05:10:50.142Z,1.20
2019-03-19T05:13:17.729Z,1.20
2019-03-19T05:15:45.330Z,1.10
2019-03-19T05:18:12.906Z,1.10
2019-03-19T05:20:40.570Z,1.10
2019-03-19T05:23:08.156Z,1.10
2019-03-19T05:25:35.738Z,1.10
2019-03-19T05:28:03.434Z,1.10
2019-03-19T05:30:31.803Z,1.30
2019-03-19T05:33:00.151Z,1.20
2019-03-19T05:35:27.764Z,1.20
2019-03-19T05:37:55.345Z,1.20
2019-03-19T05:40:22.931Z,1.20
2019-03-19T05:42:50.532Z,1.10
2019-03-19T05:45:18.883Z,1.10
2019-03-19T05:47:46.612Z,1.10
2019-03-19T05:50:14.198Z,1.10
2019-03-19T05:52:41.782Z,1.20
2019-03-19T05:55:09.391Z,1.20
2019-03-19T05:57:48.397Z,1.30
2019-03-19T06:00:04.563Z,1.30
2019-03-19T06:02:32.171Z,1.30
2019-03-19T06:04:59.749Z,1.20
2019-03-19T06:07:27.459Z,1.20
2019-03-19T06:09:55.044Z,1.20
2019-03-19T06:12:22.631Z,1.10
2019-03-19T06:14:50.328Z,1.10
2019-03-19T06:17:17.906Z,1.20
2019-03-19T06:19:47.652Z,1.10
2019-03-19T06:22:15.273Z,1.10
2019-03-19T06:24:43.417Z,1.10
2019-03-19T06:27:11.128Z,1.10
2019-03-19T06:29:39.474Z,1.00
2019-03-19T06:32:07.062Z,1.00
2019-03-19T06:34:36.327Z,1.00
2019-03-19T06:37:03.910Z,1.00
2019-03-19T06:39:31.493Z,0.90
2019-03-19T06:41:59.896Z,0.90
2019-03-19T06:44:27.477Z,0.90
2019-03-19T06:46:55.072Z,1.00
2019-03-19T06:49:22.783Z,0.90
2019-03-19T06:51:50.359Z,0.90
2019-03-19T06:54:18.349Z,0.90
2019-03-19T06:56:45.956Z,0.90
2019-03-19T06:59:16.339Z,0.90
2019-03-19T07:01:43.943Z,0.90
2019-03-19T07:04:11.529Z,0.90
2019-03-19T07:06:39.255Z,0.80
2019-03-19T07:09:06.840Z,0.80
2019-03-19T07:11:35.189Z,0.70
2019-03-19T07:14:02.905Z,0.70
2019-03-19T07:16:30.480Z,0.70
2019-03-19T07:18:58.071Z,0.70
2019-03-19T07:21:25.709Z,0.70
2019-03-19T07:23:53.294Z,0.60
2019-03-19T07:26:20.876Z,0.60
2019-03-19T07:28:48.579Z,0.60
2019-03-19T07:31:16.576Z,0.60
2019-03-19T07:33:44.159Z,0.60
2019-03-19T07:36:12.108Z,0.60
2019-03-19T07:38:39.689Z,0.60
2019-03-19T07:41:07.269Z,0.70
2019-03-19T07:43:35.055Z,0.70
2019-03-19T07:46:02.633Z,0.80
2019-03-19T07:48:30.266Z,0.90
2019-03-19T07:50:57.873Z,1.00
2019-03-19T07:53:25.489Z,1.10
2019-03-19T07:55:53.539Z,1.20
2019-03-19T07:58:31.308Z,1.30
2019-03-19T08:00:48.241Z,1.30
2019-03-19T08:03:16.599Z,1.40
2019-03-19T08:05:49.566Z,1.50
2019-03-19T08:08:17.168Z,1.70
2019-03-19T08:10:44.758Z,1.70
2019-03-19T08:13:13.112Z,1.80
2019-03-19T08:15:41.086Z,1.80
2019-03-19T08:18:08.674Z,1.80
2019-03-19T08:20:37.022Z,2.00
2019-03-19T08:23:04.682Z,2.00
2019-03-19T08:25:32.236Z,2.10
2019-03-19T08:28:00.105Z,2.30
2019-03-19T08:30:27.829Z,2.50
2019-03-19T08:32:56.164Z,2.90
2019-03-19T08:35:23.749Z,2.90
2019-03-19T08:37:51.906Z,2.90
2019-03-19T08:40:19.476Z,2.90
2019-03-19T08:42:47.055Z,3.00
2019-03-19T08:45:17.461Z,3.10
2019-03-19T08:47:45.303Z,3.10
2019-03-19T08:50:15.564Z,3.20
2019-03-19T08:52:43.518Z,3.20
2019-03-19T08:55:12.827Z,3.30
2019-03-19T08:57:40.419Z,3.30
2019-03-19T09:00:12.120Z,3.50
2019-03-19T09:02:39.712Z,3.50
2019-03-19T09:05:07.292Z,3.60
2019-03-19T09:07:34.959Z,3.60
2019-03-19T09:10:03.299Z,3.80
2019-03-19T09:12:30.887Z,3.80
2019-03-19T09:14:59.276Z,4.10
2019-03-19T09:17:27.616Z,4.20
2019-03-19T09:19:55.199Z,4.20
2019-03-19T09:22:22.956Z,4.30
2019-03-19T09:24:50.492Z,4.40
2019-03-19T09:27:18.071Z,4.50
2019-03-19T09:29:45.791Z,4.60
2019-03-19T09:32:13.371Z,4.70
2019-03-19T09:34:40.959Z,4.90
2019-03-19T09:37:08.686Z,5.00
2019-03-19T09:39:36.281Z,5.30
2019-03-19T09:42:03.871Z,5.50
2019-03-19T09:44:32.249Z,5.80
2019-03-19T09:47:00.591Z,5.90
2019-03-19T09:49:28.566Z,5.90
2019-03-19T09:51:56.132Z,6.00
2019-03-19T09:54:23.706Z,6.10
2019-03-19T09:56:51.330Z,6.20
2019-03-19T09:59:27.160Z,6.30
2019-03-19T10:01:49.772Z,6.50
2019-03-19T10:04:17.476Z,6.50
2019-03-19T10:06:47.207Z,6.50
2019-03-19T10:09:12.630Z,6.70
2019-03-19T10:11:40.251Z,7.00
2019-03-19T10:14:07.833Z,7.30
2019-03-19T10:16:35.411Z,7.40
2019-03-19T10:19:03.037Z,7.50
2019-03-19T10:21:31.376Z,7.60
2019-03-19T10:23:58.960Z,7.60
2019-03-19T10:26:26.641Z,7.70
2019-03-19T10:28:54.998Z,7.80
2019-03-19T10:31:22.566Z,7.80
2019-03-19T10:33:50.969Z,7.80
2019-03-19T10:36:18.549Z,7.80
2019-03-19T10:38:46.125Z,7.80
2019-03-19T10:41:14.118Z,7.80
2019-03-19T10:43:41.696Z,7.90
2019-03-19T10:46:09.269Z,7.90
2019-03-19T10:48:38.318Z,8.10
2019-03-19T10:51:05.895Z,8.10
2019-03-19T10:53:33.466Z,8.20
2019-03-19T10:56:01.182Z,8.30
2019-03-19T10:58:28.751Z,8.40
2019-03-19T11:00:56.323Z,8.50
2019-03-19T11:03:24.625Z,8.70
2019-03-19T11:05:52.198Z,8.90
2019-03-19T11:08:19.853Z,8.90
2019-03-19T11:10:47.477Z,9.10
2019-03-19T11:13:15.063Z,9.10
2019-03-19T11:15:42.633Z,9.10
2019-03-19T11:18:10.346Z,9.10
2019-03-19T11:20:37.912Z,9.10
2019-03-19T11:23:05.480Z,9.10
2019-03-19T11:25:33.186Z,9.20
2019-03-19T11:28:00.756Z,9.20
2019-03-19T11:30:30.988Z,9.20
2019-03-19T11:32:58.607Z,9.20
2019-03-19T11:35:26.182Z,9.30
2019-03-19T11:37:53.754Z,9.40
2019-03-19T11:40:21.375Z,9.50
2019-03-19T11:42:48.956Z,9.50
2019-03-19T11:45:22.281Z,9.60
2019-03-19T11:47:49.988Z,9.60
2019-03-19T11:50:23.140Z,9.60
2019-03-19T11:52:50.716Z,9.70
2019-03-19T11:55:18.361Z,9.70
2019-03-19T11:57:45.928Z,9.70
2019-03-19T12:00:19.543Z,9.70
2019-03-19T12:02:47.301Z,9.70
2019-03-19T12:05:14.867Z,9.70
2019-03-19T12:07:42.442Z,9.70
2019-03-19T12:10:10.905Z,10.00
2019-03-19T12:12:38.480Z,9.90
2019-03-19T12:15:06.057Z,10.00
2019-03-19T12:17:33.676Z,10.00
2019-03-19T12:20:01.256Z,10.00
2019-03-19T12:22:28.837Z,10.00
2019-03-19T12:24:56.448Z,10.20
2019-03-19T12:27:24.027Z,10.40
2019-03-19T12:29:52.181Z,10.40
2019-03-19T12:32:19.756Z,10.40
2019-03-19T12:34:47.334Z,10.50
2019-03-19T12:37:15.039Z,10.60
2019-03-19T12:39:42.630Z,10.60
2019-03-19T12:42:10.206Z,10.70
2019-03-19T12:44:37.829Z,10.70
2019-03-19T12:47:05.408Z,10.70
2019-03-19T12:49:32.987Z,10.60
2019-03-19T12:52:00.695Z,10.60
2019-03-19T12:54:29.102Z,10.70
2019-03-19T12:56:56.684Z,10.60
2019-03-19T12:59:24.327Z,10.70
2019-03-19T13:01:51.911Z,10.70
2019-03-19T13:04:19.493Z,10.80
2019-03-19T13:06:47.258Z,10.80
2019-03-19T13:09:14.849Z,10.80
2019-03-19T13:11:43.198Z,11.20
2019-03-19T13:14:10.860Z,11.20
2019-03-19T13:16:38.446Z,11.30
2019-03-19T13:19:06.796Z,11.60
2019-03-19T13:21:34.754Z,11.50
2019-03-19T13:24:02.308Z,11.60
2019-03-19T13:26:29.878Z,11.60
2019-03-19T13:28:58.496Z,11.60
2019-03-19T13:31:26.074Z,11.50
2019-03-19T13:33:54.412Z,11.50
2019-03-19T13:36:22.108Z,11.50
2019-03-19T13:38:49.693Z,11.50
2019-03-19T13:41:17.286Z,11.60
2019-03-19T13:43:44.916Z,11.60
2019-03-19T13:46:12.499Z,11.60
2019-03-19T13:48:40.073Z,11.60
2019-03-19T13:51:07.777Z,11.70
2019-03-19T13:53:36.123Z,11.70
2019-03-19T13:56:04.083Z,11.70
2019-03-19T13:58:31.694Z,11.70
2019-03-19T14:01:00.039Z,11.80
2019-03-19T14:03:27.743Z,11.80
2019-03-19T14:05:56.090Z,11.90
2019-03-19T14:08:23.679Z,11.80
2019-03-19T14:10:54.281Z,11.90
2019-03-19T14:13:20.224Z,11.90
2019-03-19T14:15:47.790Z,11.90
2019-03-19T14:18:16.556Z,12.00
2019-03-19T14:20:44.134Z,12.00
2019-03-19T14:23:11.713Z,12.00
2019-03-19T14:25:40.186Z,12.30
2019-03-19T14:28:07.764Z,12.30
2019-03-19T14:30:35.336Z,12.30
2019-03-19T14:33:03.455Z,12.30
2019-03-19T14:35:37.277Z,12.30
2019-03-19T14:37:58.612Z,12.30
2019-03-19T14:40:26.978Z,12.60
2019-03-19T14:42:54.556Z,12.60
2019-03-19T14:45:22.989Z,12.70
2019-03-19T14:47:50.569Z,12.70
2019-03-19T14:50:23.585Z,12.80
2019-03-19T14:52:51.967Z,13.00
2019-03-19T14:55:20.309Z,13.10
2019-03-19T14:57:47.882Z,13.10
2019-03-19T15:00:18.194Z,13.10
2019-03-19T15:02:45.766Z,13.10
2019-03-19T15:05:13.342Z,13.10
2019-03-19T15:07:41.847Z,13.20
2019-03-19T15:10:12.338Z,13.20
2019-03-19T15:12:39.919Z,13.30
2019-03-19T15:15:08.293Z,13.40
2019-03-19T15:17:35.924Z,13.40
2019-03-19T15:20:03.507Z,13.60
2019-03-19T15:22:32.740Z,13.60
2019-03-19T15:24:59.949Z,13.50
2019-03-19T15:27:27.523Z,13.50
2019-03-19T15:29:55.103Z,13.50
2019-03-19T15:32:23.591Z,13.70
2019-03-19T15:34:51.167Z,13.60
2019-03-19T15:37:18.765Z,13.60
2019-03-19T15:39:46.422Z,13.60
2019-03-19T15:42:14.003Z,13.60
2019-03-19T15:44:41.581Z,13.60
2019-03-19T15:47:09.201Z,13.60
2019-03-19T15:49:38.559Z,13.80
2019-03-19T15:52:04.350Z,13.80
2019-03-19T15:54:31.980Z,13.90
2019-03-19T15:56:59.582Z,13.90
2019-03-19T15:59:27.158Z,13.90
2019-03-19T16:01:54.766Z,14.00
2019-03-19T16:04:22.347Z,14.10
2019-03-19T16:06:50.053Z,14.10
2019-03-19T16:09:18.403Z,14.20
2019-03-19T16:11:45.982Z,14.20
2019-03-19T16:14:13.759Z,14.30
2019-03-19T16:16:41.343Z,14.50
2019-03-19T16:19:08.922Z,14.60
2019-03-19T16:21:36.543Z,14.60
2019-03-19T16:24:04.902Z,14.70
2019-03-19T16:26:32.534Z,14.70
2019-03-19T16:29:00.327Z,14.90
2019-03-19T16:31:27.901Z,15.10
2019-03-19T16:33:55.478Z,15.10
2019-03-19T16:36:23.891Z,15.00
2019-03-19T16:38:51.472Z,15.00
2019-03-19T16:41:19.341Z,14.90
2019-03-19T16:43:47.431Z,14.80
2019-03-19T16:46:15.024Z,14.60
2019-03-19T16:48:42.632Z,14.40
2019-03-19T16:51:10.293Z,14.20
2019-03-19T16:53:37.885Z,14.00
2019-03-19T16:56:07.596Z,13.80
2019-03-19T16:58:34.199Z,13.70
2019-03-19T17:01:01.836Z,13.50
2019-03-19T17:03:29.369Z,13.30
2019-03-19T17:05:56.979Z,13.20
2019-03-19T17:08:24.601Z,13.10
2019-03-19T17:10:52.179Z,12.90
2019-03-19T17:13:20.520Z,12.70
2019-03-19T17:15:48.245Z,12.70
2019-03-19T17:18:15.833Z,12.60
2019-03-19T17:20:43.405Z,12.70
2019-03-19T17:23:11.006Z,12.60
2019-03-19T17:25:39.388Z,12.40
2019-03-19T17:28:07.066Z,12.40
2019-03-19T17:30:37.331Z,12.30
2019-03-19T17:33:04.915Z,12.20
2019-03-19T17:35:32.619Z,12.10
2019-03-19T17:38:00.201Z,12.00
2019-03-19T17:40:27.776Z,11.90
2019-03-19T17:42:55.578Z,11.80
2019-03-19T17:45:23.674Z,11.70
2019-03-19T17:47:51.315Z,11.70
2019-03-19T17:50:18.928Z,11.50
2019-03-19T17:52:46.675Z,11.50
2019-03-19T17:55:14.162Z,11.30
2019-03-19T17:57:41.739Z,11.20
2019-03-19T18:00:12.197Z,11.10
2019-03-19T18:02:40.591Z,10.80
2019-03-19T18:05:08.248Z,10.80
2019-03-19T18:07:36.685Z,10.60
2019-03-19T18:10:04.305Z,10.60
2019-03-19T18:12:31.841Z,10.40
2019-03-19T18:14:59.509Z,10.30
2019-03-19T18:17:27.092Z,10.20
2019-03-19T18:19:54.682Z,10.10
2019-03-19T18:22:22.313Z,9.90
2019-03-19T18:24:49.902Z,9.80
2019-03-19T18:27:17.482Z,9.70
2019-03-19T18:29:45.169Z,9.60
2019-03-19T18:32:12.732Z,9.50
2019-03-19T18:34:40.330Z,9.40
2019-03-19T18:37:07.961Z,9.30
2019-03-19T18:39:35.715Z,9.20
2019-03-19T18:42:03.112Z,9.10
2019-03-19T18:44:30.737Z,9.00
2019-03-19T18:46:58.672Z,8.90
2019-03-19T18:49:26.327Z,8.80
2019-03-19T18:51:53.902Z,8.70
2019-03-19T18:54:21.511Z,8.60
2019-03-19T18:56:49.909Z,8.50
2019-03-19T18:59:17.495Z,8.50
2019-03-19T19:01:45.093Z,8.40
2019-03-19T19:04:12.740Z,8.30
2019-03-19T19:06:40.335Z,8.20
2019-03-19T19:09:07.903Z,8.10
2019-03-19T19:11:36.346Z,7.80
2019-03-19T19:14:04.203Z,7.80
2019-03-19T19:16:31.798Z,7.80
2019-03-19T19:18:59.405Z,7.60
2019-03-19T19:21:26.978Z,7.50
2019-03-19T19:23:55.585Z,7.40
2019-03-19T19:26:23.167Z,7.60
2019-03-19T19:28:50.796Z,7.50
2019-03-19T19:31:18.417Z,7.50
2019-03-19T19:33:45.996Z,7.40
2019-03-19T19:36:13.570Z,7.40
2019-03-19T19:38:41.199Z,7.20
2019-03-19T19:41:09.534Z,7.10
2019-03-19T19:43:37.109Z,7.10
2019-03-19T19:46:04.735Z,7.00
2019-03-19T19:48:32.314Z,6.90
2019-03-19T19:50:59.932Z,7.10
2019-03-19T19:53:27.506Z,7.20
2019-03-19T19:55:55.087Z,7.20
2019-03-19T19:58:22.799Z,7.10
2019-03-19T20:00:50.376Z,7.00
2019-03-19T20:03:18.744Z,6.70
2019-03-19T20:05:47.123Z,6.60
2019-03-19T20:08:15.474Z,6.50
2019-03-19T20:10:43.074Z,6.50
2019-03-19T20:13:10.991Z,6.50
2019-03-19T20:15:38.566Z,6.40
2019-03-19T20:18:06.141Z,6.30
2019-03-19T20:20:33.793Z,6.30
2019-03-19T20:23:01.369Z,6.20
2019-03-19T20:25:28.950Z,6.20
2019-03-19T20:27:57.344Z,6.00
2019-03-19T20:30:24.922Z,6.00
2019-03-19T20:32:52.504Z,6.00
2019-03-19T20:35:20.140Z,5.90
2019-03-19T20:37:47.710Z,5.90
2019-03-19T20:40:15.293Z,5.80
2019-03-19T20:42:43.687Z,5.70
2019-03-19T20:45:11.260Z,5.60
2019-03-19T20:47:38.832Z,5.70
2019-03-19T20:50:07.226Z,5.60
2019-03-19T20:52:35.566Z,5.50
2019-03-19T20:55:03.139Z,5.50
2019-03-19T20:57:30.766Z,5.40
2019-03-19T20:59:58.338Z,5.40
2019-03-19T21:02:25.950Z,5.50
2019-03-19T21:04:53.519Z,5.50
2019-03-19T21:07:21.091Z,5.40
2019-03-19T21:09:48.743Z,5.50
2019-03-19T21:12:17.143Z,5.30
2019-03-19T21:14:44.668Z,5.30
2019-03-19T21:17:12.295Z,5.20
2019-03-19T21:19:39.866Z,5.00
2019-03-19T21:22:07.454Z,4.90
2019-03-19T21:24:35.827Z,5.00
2019-03-19T21:27:03.423Z,5.00
2019-03-19T21:29:31.668Z,5.00
2019-03-19T21:32:00.016Z,5.20
2019-03-19T21:34:27.586Z,5.20
2019-03-19T21:36:55.220Z,5.20
2019-03-19T21:39:22.791Z,5.10
2019-03-19T21:41:50.364Z,5.20
2019-03-19T21:44:18.048Z,5.20
2019-03-19T21:46:45.614Z,5.10
2019-03-19T21:49:13.192Z,5.00
2019-03-19T21:51:41.592Z,4.90
2019-03-19T21:54:09.162Z,4.90
2019-03-19T21:56:36.738Z,4.80
2019-03-19T21:59:04.330Z,4.80
2019-03-19T22:01:31.894Z,4.80
2019-03-19T22:04:03.361Z,4.80
2019-03-19T22:06:27.089Z,4.80
2019-03-19T22:08:54.646Z,4.80
2019-03-19T22:11:22.249Z,4.70
2019-03-19T22:13:49.817Z,4.60
2019-03-19T22:16:18.560Z,4.50
2019-03-19T22:18:46.139Z,4.50
2019-03-19T22:21:13.712Z,4.50
2019-03-19T22:23:41.347Z,4.50
2019-03-19T22:26:08.911Z,4.50
2019-03-19T22:28:36.923Z,4.60
2019-03-19T22:31:05.194Z,4.60
2019-03-19T22:33:33.643Z,4.50
2019-03-19T22:36:01.145Z,4.50
2019-03-19T22:38:29.480Z,4.40
2019-03-19T22:40:57.050Z,4.40
2019-03-19T22:43:25.988Z,4.40
2019-03-19T22:45:52.581Z,4.30
2019-03-19T22:48:20.264Z,4.50
2019-03-19T22:50:47.845Z,4.40
2019-03-19T22:53:16.185Z,4.30
2019-03-19T22:55:43.779Z,4.30
2019-03-19T22:58:12.128Z,4.10
2019-03-19T23:00:39.746Z,4.10
2019-03-19T23:03:07.335Z,4.10
2019-03-19T23:05:34.898Z,4.10
2019-03-19T23:08:02.501Z,4.10
2019-03-19T23:10:30.076Z,4.00
2019-03-19T23:12:58.458Z,3.90
2019-03-19T23:15:26.795Z,3.80
2019-03-19T23:17:54.375Z,3.80
2019-03-19T23:20:21.959Z,3.70
2019-03-19T23:22:50.302Z,3.80
2019-03-19T23:25:17.933Z,3.80
2019-03-19T23:27:45.509Z,3.80
2019-03-19T23:30:13.684Z,3.90
2019-03-19T23:32:41.291Z,3.80
2019-03-19T23:35:09.632Z,3.70
2019-03-19T23:37:37.201Z,3.70
2019-03-19T23:40:16.304Z,3.60
2019-03-19T23:42:43.876Z,3.50
2019-03-19T23:45:11.506Z,3.50
2019-03-19T23:47:39.083Z,3.40
2019-03-19T23:50:09.634Z,3.40
2019-03-19T23:52:37.241Z,3.30
2019-03-19T23:55:05.587Z,3.30
2019-03-19T23:57:33.197Z,3.20
